Time;durP1;ratioP1;P1;durP2;ratioP2;P2;SDS_P1;SDS_P2;PMS_P1;PMS_P2;Temp;Humidity;BMP_temperature;BMP_pressure;BME280_temperature;BME280_humidity;BME280_pressure;Samples;Min_cycle;Max_cycle;Signal;HPM_P1;HPM_P2
2021/01/30 00:01:15;;;;;;;;;0.00;0.00;19.80;62.50;;;18.63;49.95;101410.81;5021461;28;8810;-60
2021/01/30 00:03:41;;;;;;;;;0.00;0.00;19.60;62.80;;;18.62;49.85;101409.13;5023475;28;8810;-60
2021/01/30 00:06:08;;;;;;;;;0.00;0.00;19.80;63.40;;;18.62;50.22;101409.13;5030839;28;8802;-60
2021/01/30 00:08:35;;;;;;;;;0.00;0.00;19.60;63.40;;;18.61;49.53;101412.78;5027373;28;8814;-60
2021/01/30 00:11:02;;;;;;;;;0.00;0.00;19.80;63.20;;;18.55;48.79;101413.34;5028082;28;9492;-60
2021/01/30 00:13:29;;;;;;;;;0.00;0.00;19.80;63.20;;;18.52;49.18;101418.94;5030020;28;8778;-59
2021/01/30 00:15:56;;;;;;;;;1.00;0.00;19.40;63.00;;;18.52;49.74;101416.28;5029998;28;8802;-60
2021/01/30 00:18:22;;;;;;;;;0.50;0.50;19.60;62.90;;;18.46;51.38;101423.03;5019090;28;8851;-66
2021/01/30 00:20:49;;;;;;;;;0.00;0.00;19.50;66.40;;;18.42;51.38;101419.78;5025169;28;8793;-67
2021/01/30 00:23:16;;;;;;;;;0.00;0.00;19.60;65.60;;;18.47;52.96;101429.22;5023561;28;8798;-60
2021/01/30 00:25:43;;;;;;;;;0.00;0.00;19.60;66.90;;;18.46;53.21;101432.88;5026033;28;8800;-61
2021/01/30 00:28:10;;;;;;;;;3.00;2.00;19.70;67.40;;;18.48;53.10;101425.56;5026992;28;10205;-62
2021/01/30 00:30:38;;;;;;;;;0.00;0.00;19.80;65.30;;;18.47;50.90;101427.41;5020367;28;8798;-61
2021/01/30 00:33:06;;;;;;;;;0.00;0.00;19.70;63.50;;;18.48;50.28;101434.44;5030711;28;8834;-61
2021/01/30 00:35:35;;;;;;;;;0.00;0.00;19.40;63.00;;;18.48;48.81;101431.78;5027553;28;8871;-61
2021/01/30 00:38:04;;;;;;;;;0.00;0.00;19.50;63.10;;;18.48;48.80;101430.94;5030878;28;8796;-61
2021/01/30 00:40:31;;;;;;;;;0.00;0.00;19.40;63.00;;;18.48;48.39;101434.44;5021588;28;8815;-61
2021/01/30 00:42:58;;;;;;;;;0.00;0.00;19.40;62.80;;;18.47;47.80;101437.25;5028069;28;8821;-62
2021/01/30 00:45:27;;;;;;;;;0.00;0.00;19.40;62.80;;;18.44;49.50;101436.56;5011727;28;8802;-61
2021/01/30 00:47:56;;;;;;;;;0.00;0.00;19.50;64.20;;;18.49;50.50;101440.63;5023952;28;8797;-61
2021/01/30 00:50:23;;;;;;;;;0.00;0.00;19.70;64.50;;;18.46;49.77;101449.78;5022651;28;8833;-61
2021/01/30 00:52:50;;;;;;;;;1.00;0.00;19.60;63.10;;;18.48;52.01;101452.34;5020333;28;8921;-60
2021/01/30 00:55:21;;;;;;;;;0.00;0.00;19.70;66.50;;;18.51;52.83;101455.56;5021058;28;8837;-61
2021/01/30 00:57:49;;;;;;;;;0.00;0.00;19.80;67.50;;;18.51;53.37;101465.44;5026127;28;8804;-61
2021/01/30 01:00:21;;;;;;;;;0.00;0.00;19.80;67.80;;;18.51;53.83;101462.75;5022398;28;9587;-61
2021/01/30 01:02:48;;;;;;;;;0.00;0.00;19.80;68.00;;;18.57;54.40;101470.22;5025537;28;8838;-61
2021/01/30 01:05:17;;;;;;;;;0.00;0.00;20.00;68.30;;;18.63;54.26;101475.88;5026442;28;8880;-61
2021/01/30 01:07:45;;;;;;;;;0.00;0.00;20.00;68.10;;;18.66;54.11;101472.09;5018639;28;8837;-61
2021/01/30 01:10:15;;;;;;;;;0.50;0.00;20.20;67.90;;;18.65;54.19;101467.72;5021345;28;8841;-61
2021/01/30 01:12:42;;;;;;;;;0.00;0.00;20.20;67.70;;;18.66;53.98;101482.78;5027353;28;8898;-61
2021/01/30 01:15:10;;;;;;;;;0.00;0.00;20.10;67.80;;;18.66;54.29;101483.63;5024035;28;8814;-61
2021/01/30 01:17:37;;;;;;;;;0.00;0.00;20.00;68.10;;;18.65;54.59;101489.16;5020659;28;8810;-61
2021/01/30 01:20:13;;;;;;;;;0.00;0.00;20.00;68.40;;;18.63;54.77;101491.94;5030491;28;8783;-61
2021/01/30 01:22:40;;;;;;;;;0.00;0.00;20.20;68.80;;;18.65;54.30;101491.81;5026038;28;8809;-59
2021/01/30 01:25:08;;;;;;;;;0.00;0.00;20.00;67.90;;;18.70;54.71;101497.59;5036491;28;8844;-60
2021/01/30 01:27:36;;;;;;;;;0.00;0.00;20.00;68.80;;;18.72;54.80;101500.13;5020481;28;8881;-59
2021/01/30 01:30:10;;;;;;;;;0.00;0.00;20.10;68.40;;;18.72;54.53;101494.78;5021166;28;8809;-60
2021/01/30 01:32:37;;;;;;;;;0.00;0.00;20.20;68.20;;;18.71;54.51;101503.81;5022362;28;8826;-60
2021/01/30 01:35:06;;;;;;;;;0.00;0.00;20.10;68.20;;;18.70;54.04;101502.97;5027186;28;8948;-60
2021/01/30 01:37:33;;;;;;;;;0.00;0.00;20.10;67.80;;;18.67;53.90;101500.53;5027902;28;8764;-61
2021/01/30 01:40:00;;;;;;;;;0.00;0.00;20.00;67.50;;;18.65;54.10;101511.38;5023053;28;8785;-61
2021/01/30 01:42:27;;;;;;;;;0.50;0.00;20.30;67.70;;;18.65;53.78;101514.06;5003741;28;8822;-60
2021/01/30 01:44:55;;;;;;;;;0.00;0.00;19.80;67.40;;;18.68;54.19;101510.28;5029115;28;9546;-60
2021/01/30 01:47:50;;;;;;;;;0.00;0.00;19.90;68.00;;;18.72;54.30;101506.31;5027259;28;8813;-60
2021/01/30 01:50:39;;;;;;;;;0.00;0.00;20.20;68.20;;;18.70;54.20;101511.00;5021626;28;8914;-60
2021/01/30 01:53:17;;;;;;;;;0.00;0.00;20.10;67.80;;;18.69;53.66;101505.75;5019614;28;8923;-60
2021/01/30 01:55:57;;;;;;;;;0.00;0.00;20.10;67.40;;;18.68;53.74;101504.09;5021479;28;8796;-60
2021/01/30 01:58:26;;;;;;;;;0.00;0.00;20.00;67.10;;;18.65;53.85;101502.53;5022873;28;8794;-60
2021/01/30 02:00:54;;;;;;;;;0.00;0.00;20.20;67.20;;;18.64;53.52;101515.03;5014491;28;8802;-60
2021/01/30 02:03:22;;;;;;;;;0.00;0.00;20.00;67.30;;;18.64;53.74;101522.22;5033190;28;8823;-60
2021/01/30 02:05:49;;;;;;;;;0.00;0.00;19.80;67.50;;;18.71;54.08;101515.34;5012628;28;9638;-60
2021/01/30 02:08:23;;;;;;;;;0.00;0.00;20.00;67.80;;;18.69;54.15;101522.66;5029528;28;8857;-59
2021/01/30 02:10:52;;;;;;;;;0.00;0.00;20.10;67.70;;;18.70;53.81;101535.06;5020383;28;8796;-60
2021/01/30 02:13:48;;;;;;;;;0.00;0.00;20.10;67.40;;;18.68;53.70;101525.50;5025103;28;8828;-60
2021/01/30 02:16:41;;;;;;;;;0.00;0.00;20.00;67.60;;;18.66;53.82;101526.44;5026265;28;8837;-60
2021/01/30 02:19:29;;;;;;;;;0.00;0.00;20.00;67.20;;;18.65;53.70;101530.13;5021109;28;8816;-60
2021/01/30 02:22:30;;;;;;;;;0.00;0.00;19.90;67.30;;;18.63;53.64;101518.69;5021076;28;8805;-60
2021/01/30 02:25:17;;;;;;;;;0.00;0.00;20.00;67.60;;;18.70;53.81;101521.69;5026417;28;9588;-59
2021/01/30 02:27:59;;;;;;;;;0.00;0.00;20.00;67.70;;;18.67;53.54;101513.91;5023631;28;8782;-59
2021/01/30 02:30:40;;;;;;;;;0.00;0.00;20.10;67.60;;;18.66;53.79;101521.09;5027171;28;8850;-60
2021/01/30 02:33:53;;;;;;;;;2.00;0.00;19.80;66.90;;;18.64;53.80;101531.09;5026540;28;8828;-60
2021/01/30 02:36:47;;;;;;;;;0.00;0.00;20.00;67.20;;;18.63;53.46;101540.13;5025159;28;8814;-60
2021/01/30 02:39:51;;;;;;;;;0.00;0.00;20.00;67.10;;;18.60;53.42;101552.94;5025435;28;8794;-60
2021/01/30 02:42:42;;;;;;;;;0.00;0.00;20.00;67.20;;;18.64;53.40;101543.63;5007836;28;8835;-60
2021/01/30 02:45:23;;;;;;;;;0.00;0.00;20.00;67.70;;;18.67;53.97;101548.69;5017004;28;8840;-60
2021/01/30 02:48:18;;;;;;;;;0.00;0.00;20.10;68.00;;;18.66;53.91;101544.34;5011893;28;8819;-60
2021/01/30 02:50:51;;;;;;;;;0.00;0.00;20.30;67.50;;;18.66;54.00;101544.34;5009012;28;9293;-60
2021/01/30 02:53:39;;;;;;;;;0.00;0.00;20.10;67.20;;;18.65;53.70;101548.03;5012546;28;8810;-60
2021/01/30 02:56:07;;;;;;;;;0.00;0.00;19.80;67.10;;;18.63;53.64;101552.66;5007484;28;8828;-60
2021/01/30 02:58:59;;;;;;;;;0.00;0.00;20.00;67.20;;;18.59;53.45;101562.75;5019131;28;8834;-60
2021/01/30 03:01:26;;;;;;;;;0.00;0.00;20.10;67.40;;;18.58;53.44;101566.44;5021194;28;8928;-60
2021/01/30 03:04:05;;;;;;;;;0.00;0.00;20.00;67.60;;;18.65;53.78;101580.13;5027107;28;8837;-60
2021/01/30 03:07:33;;;;;;;;;0.00;0.00;19.90;67.80;;;18.66;53.99;101587.16;5015367;28;8794;-60
2021/01/30 03:10:35;;;;;;;;;0.00;0.00;20.10;67.80;;;18.65;53.78;101582.81;5011348;28;8936;-60
2021/01/30 03:13:11;;;;;;;;;0.00;0.00;19.90;67.40;;;18.64;53.67;101586.44;5027448;28;8860;-60
2021/01/30 03:16:00;;;;;;;;;0.00;0.00;20.10;67.40;;;18.62;53.70;101591.09;5020169;28;8813;-60
2021/01/30 03:18:35;;;;;;;;;0.00;0.00;20.10;67.30;;;18.60;53.61;101604.63;5028120;28;8789;-60
2021/01/30 03:21:07;;;;;;;;;0.00;0.00;20.10;67.40;;;18.57;53.39;101618.25;5013216;28;8828;-60
2021/01/30 03:23:36;;;;;;;;;0.00;0.00;20.10;67.50;;;18.63;53.83;101620.41;5018875;28;8810;-60
2021/01/30 03:26:06;;;;;;;;;0.00;0.00;20.00;67.70;;;18.64;53.75;101611.38;5032572;28;8792;-60
2021/01/30 03:28:33;;;;;;;;;0.00;0.00;20.00;67.80;;;18.62;53.75;101613.38;5026018;28;8797;-60
2021/01/30 03:31:00;;;;;;;;;0.00;0.00;20.20;67.40;;;18.62;53.57;101624.06;5027798;28;8797;-60
2021/01/30 03:33:27;;;;;;;;;0.00;0.00;20.00;67.10;;;18.62;53.31;101639.25;5020160;28;8925;-60
2021/01/30 03:35:55;;;;;;;;;0.00;0.00;19.90;67.20;;;18.62;53.43;101634.78;5027417;28;9616;-60
2021/01/30 03:38:22;;;;;;;;;0.00;0.00;19.90;67.50;;;18.70;53.57;101639.47;5026302;28;8851;-61
2021/01/30 03:40:49;;;;;;;;;0.00;0.00;20.10;67.40;;;18.69;53.59;101631.56;5027891;28;8782;-60
2021/01/30 03:43:16;;;;;;;;;0.00;0.00;20.10;67.40;;;18.68;53.61;101633.38;5024063;28;8812;-60
2021/01/30 03:45:43;;;;;;;;;0.00;0.00;20.00;67.00;;;18.67;53.20;101626.31;5026528;28;8818;-60
2021/01/30 03:48:10;;;;;;;;;0.00;0.00;20.00;67.00;;;18.64;53.28;101626.59;5021977;28;8862;-60
2021/01/30 03:50:37;;;;;;;;;0.00;0.00;20.00;67.10;;;18.62;53.28;101625.88;5024190;28;8943;-60
2021/01/30 03:53:07;;;;;;;;;0.00;0.00;19.90;67.10;;;18.61;53.25;101621.50;5022892;28;8842;-60
2021/01/30 03:55:35;;;;;;;;;0.00;0.00;19.70;66.90;;;18.57;53.30;101612.91;5014460;28;9475;-60
2021/01/30 03:58:03;;;;;;;;;0.00;0.00;19.90;67.00;;;18.56;53.38;101621.06;5015321;28;8834;-59
2021/01/30 04:00:29;;;;;;;;;0.00;0.00;19.90;67.40;;;18.55;53.14;101628.25;5027861;28;8878;-58
2021/01/30 04:02:56;;;;;;;;;0.00;0.00;19.80;67.40;;;18.55;53.94;101636.28;5027196;28;8836;-59
2021/01/30 04:05:27;;;;;;;;;2.25;1.00;19.90;68.00;;;18.56;54.03;101637.13;5023581;28;8801;-59
2021/01/30 04:07:59;;;;;;;;;1.00;1.00;19.80;68.40;;;18.54;54.54;101637.25;5024014;28;8777;-58
2021/01/30 04:10:30;;;;;;;;;1.00;1.00;19.80;68.60;;;18.55;54.74;101644.31;5025125;28;8831;-59
2021/01/30 04:12:59;;;;;;;;;0.50;0.50;20.00;68.90;;;18.53;55.58;101640.06;5025424;28;8798;-59
2021/01/30 04:15:31;;;;;;;;;1.25;0.75;19.70;69.30;;;18.53;56.29;101648.09;5019864;28;8874;-59
2021/01/30 04:17:59;;;;;;;;;2.00;1.00;19.80;70.10;;;18.55;55.71;101646.97;5017833;28;8823;-58
2021/01/30 04:20:27;;;;;;;;;0.00;0.00;19.70;68.90;;;18.58;55.90;101646.72;5032909;28;8835;-59
2021/01/30 04:22:54;;;;;;;;;0.75;0.75;20.10;69.90;;;18.58;55.57;101653.91;5026979;28;8827;-59
2021/01/30 04:25:23;;;;;;;;;1.00;0.00;20.00;69.50;;;18.57;55.81;101652.19;5015818;28;8801;-59
2021/01/30 04:27:51;;;;;;;;;2.00;1.25;19.90;69.70;;;18.57;56.49;101658.41;5028314;28;8824;-59
2021/01/30 04:30:26;;;;;;;;;1.00;1.00;19.90;69.90;;;18.56;56.58;101658.53;5029898;28;8799;-59
2021/01/30 04:32:54;;;;;;;;;0.50;0.50;19.90;70.30;;;18.55;56.61;101659.50;5039938;28;8881;-58
2021/01/30 04:35:26;;;;;;;;;0.75;0.75;19.80;70.30;;;18.54;56.96;101655.13;5027453;28;8873;-58
2021/01/30 04:37:53;;;;;;;;;3.00;2.00;19.80;70.70;;;18.54;57.57;101668.50;5021086;28;8776;-60
2021/01/30 04:40:45;;;;;;;;;2.00;1.00;19.80;71.00;;;18.51;56.98;101676.81;5032053;28;8797;-58
2021/01/30 04:43:37;;;;;;;;;1.25;1.25;19.80;71.00;;;18.50;57.05;101688.50;5028081;28;8802;-59
2021/01/30 04:46:21;;;;;;;;;1.75;1.00;19.80;71.10;;;18.49;57.19;101689.47;5027077;28;8774;-59
2021/01/30 04:49:02;;;;;;;;;0.50;0.50;19.90;70.90;;;18.48;56.98;101690.44;5029504;28;9530;-60
2021/01/30 04:51:42;;;;;;;;;1.25;1.25;19.70;71.00;;;18.48;56.08;101690.44;5021418;28;8780;-62
2021/01/30 04:54:44;;;;;;;;;1.25;1.25;19.70;70.30;;;18.55;56.13;101705.00;5018668;28;8825;-60
2021/01/30 04:58:04;;;;;;;;;0.25;0.25;19.80;70.00;;;18.58;55.74;101710.94;5014874;28;8790;-59
2021/01/30 05:00:47;;;;;;;;;1.00;1.00;20.00;69.60;;;18.56;55.71;101704.84;5009813;28;8845;-59
2021/01/30 05:04:13;;;;;;;;;0.00;0.00;19.80;69.20;;;18.57;55.61;101727.09;5024790;28;8806;-59
2021/01/30 05:06:53;;;;;;;;;1.00;0.75;20.00;69.30;;;18.55;55.73;101718.38;5012867;28;8822;-59
2021/01/30 05:09:48;;;;;;;;;3.00;0.50;19.70;69.30;;;18.54;55.83;101727.38;5017708;28;8876;-59
2021/01/30 05:12:44;;;;;;;;;1.00;1.00;20.00;69.80;;;18.58;55.77;101731.50;5033151;28;8824;-58
2021/01/30 05:15:25;;;;;;;;;1.00;0.00;19.70;69.80;;;18.64;55.64;101739.00;5026610;28;8888;-59
2021/01/30 05:18:20;;;;;;;;;0.00;0.00;19.80;69.30;;;18.61;55.28;101737.44;5019673;28;8840;-59
2021/01/30 05:21:02;;;;;;;;;1.00;0.00;20.10;69.00;;;18.60;55.46;101741.09;5016558;28;9517;-59
2021/01/30 05:23:33;;;;;;;;;1.00;1.00;19.90;69.20;;;18.58;55.60;101740.38;5016517;28;8874;-59
2021/01/30 05:26:27;;;;;;;;;1.00;0.00;19.80;69.40;;;18.56;55.43;101750.34;5037592;28;8819;-59
2021/01/30 05:29:32;;;;;;;;;0.00;0.00;19.80;69.60;;;18.56;55.64;101754.84;5028963;28;8799;-59
2021/01/30 05:32:35;;;;;;;;;0.00;0.00;19.80;69.60;;;18.55;56.04;101759.38;5026830;28;8909;-59
2021/01/30 05:35:24;;;;;;;;;0.00;0.00;19.80;70.10;;;18.54;56.13;101756.81;5028464;28;8798;-59
2021/01/30 05:38:06;;;;;;;;;0.50;0.00;19.80;70.10;;;18.52;55.98;101745.38;5002674;28;8865;-59
2021/01/30 05:41:15;;;;;;;;;1.00;1.00;19.70;70.00;;;18.51;56.22;101759.75;5022991;28;8876;-59
2021/01/30 05:43:57;;;;;;;;;0.00;0.00;19.70;70.10;;;18.49;56.08;101761.69;4978091;28;8832;-60
2021/01/30 05:46:31;;;;;;;;;1.00;0.00;19.70;70.10;;;18.48;56.18;101765.38;5019659;28;8792;-59
2021/01/30 05:49:15;;;;;;;;;0.50;0.50;19.70;70.20;;;18.45;55.82;101766.47;5018562;28;8791;-59
2021/01/30 05:52:00;;;;;;;;;1.00;1.00;19.70;69.90;;;18.44;56.01;101765.63;5022036;28;8830;-60
2021/01/30 05:54:27;;;;;;;;;0.00;0.00;19.70;70.40;;;18.46;55.80;101784.22;5022637;28;8777;-59
2021/01/30 05:56:54;;;;;;;;;1.50;1.00;19.70;70.10;;;18.48;55.53;101776.06;5041168;28;8794;-59
2021/01/30 05:59:31;;;;;;;;;0.00;0.00;19.60;69.30;;;18.51;55.08;101781.16;5029571;28;8883;-60
2021/01/30 06:02:20;;;;;;;;;0.00;0.00;19.90;69.20;;;18.49;55.15;101778.59;4998959;28;8839;-60
2021/01/30 06:04:47;;;;;;;;;1.00;1.00;19.80;69.00;;;18.49;55.17;101777.75;5015706;28;8820;-59
2021/01/30 06:07:37;;;;;;;;;0.00;0.00;19.80;69.10;;;18.47;55.28;101793.06;5027572;28;8908;-59
2021/01/30 06:10:30;;;;;;;;;0.00;0.00;19.80;69.70;;;18.46;55.75;101796.75;5015041;28;8842;-59
2021/01/30 06:13:25;;;;;;;;;0.00;0.00;19.80;69.80;;;18.43;55.77;101789.81;5021794;28;8830;-59
2021/01/30 06:16:02;;;;;;;;;0.00;0.00;19.90;70.10;;;18.41;55.86;101792.63;5017027;28;8877;-59
2021/01/30 06:18:31;;;;;;;;;0.00;0.00;19.70;69.80;;;18.40;56.17;101798.94;5029231;28;8928;-59
2021/01/30 06:21:19;;;;;;;;;0.25;0.25;19.70;70.00;;;18.39;56.08;101799.06;5013123;28;9540;-59
2021/01/30 06:24:09;;;;;;;;;1.00;0.50;19.70;70.00;;;18.37;56.02;101809.91;5024787;28;8812;-59
2021/01/30 06:26:49;;;;;;;;;1.00;0.00;19.50;69.80;;;18.36;56.08;101810.88;5032533;28;8810;-60
2021/01/30 06:29:42;;;;;;;;;1.50;1.00;19.80;70.20;;;18.36;56.02;101808.19;5007675;28;8840;-59
2021/01/30 06:32:44;;;;;;;;;1.00;0.50;19.70;70.10;;;18.32;56.19;101814.78;5031412;28;8853;-59
2021/01/30 06:35:24;;;;;;;;;0.00;0.00;19.50;69.90;;;18.33;55.94;101813.81;5008975;28;8794;-59
2021/01/30 06:38:01;;;;;;;;;0.00;0.00;19.70;70.20;;;18.34;55.84;101817.31;5050252;28;8895;-59
2021/01/30 06:40:36;;;;;;;;;1.00;1.00;19.60;70.10;;;18.34;55.68;101833.38;5052732;28;8834;-59
2021/01/30 06:43:24;;;;;;;;;0.25;0.25;19.70;69.90;;;18.33;55.77;101837.88;5017699;28;8784;-62
2021/01/30 06:46:00;;;;;;;;;0.00;0.00;19.60;69.40;;;18.31;56.01;101823.78;5003147;28;8809;-60
2021/01/30 06:48:41;;;;;;;;;1.50;1.50;19.50;70.10;;;18.31;55.80;101823.78;5012952;28;8866;-60
2021/01/30 06:51:36;;;;;;;;;1.25;1.00;19.50;69.80;;;18.30;55.71;101837.28;5015088;28;8806;-60
2021/01/30 06:54:20;;;;;;;;;1.25;0.75;19.30;69.70;;;18.28;55.79;101833.91;5013581;28;8875;-60
2021/01/30 06:57:26;;;;;;;;;1.00;1.00;19.50;69.60;;;18.26;55.73;101835.84;5028048;28;8887;-60
2021/01/30 07:00:20;;;;;;;;;1.00;1.00;19.60;69.80;;;18.26;55.52;101841.19;5020890;28;8780;-60
2021/01/30 07:03:09;;;;;;;;;0.25;0.25;19.40;69.60;;;18.24;55.42;101838.63;5020122;28;8803;-60
2021/01/30 07:06:29;;;;;;;;;1.00;1.00;19.40;69.70;;;18.19;55.54;101841.69;5012692;28;8818;-59
2021/01/30 07:09:36;;;;;;;;;1.00;1.00;19.30;69.50;;;18.18;55.74;101839.97;4995883;28;8834;-60
2021/01/30 07:12:31;;;;;;;;;0.50;0.50;19.40;69.60;;;18.15;55.79;101837.56;4972542;28;8900;-60
2021/01/30 07:15:42;;;;;;;;;2.75;2.00;19.60;69.80;;;18.14;55.82;101837.69;5031424;28;8780;-60
2021/01/30 07:18:28;;;;;;;;;1.00;1.00;19.40;69.70;;;18.12;55.66;101845.00;4967090;28;8942;-60
2021/01/30 07:21:15;;;;;;;;;2.00;1.75;19.40;69.60;;;18.10;55.86;101846.94;5022851;28;8816;-60
2021/01/30 07:23:51;;;;;;;;;1.00;1.00;19.40;69.60;;;18.09;55.39;101851.44;5007984;28;8802;-60
2021/01/30 07:26:59;;;;;;;;;0.50;0.50;19.40;69.50;;;18.09;55.53;101851.44;5022748;28;8790;-60
2021/01/30 07:29:50;;;;;;;;;1.25;1.00;19.40;69.50;;;18.04;55.82;101842.94;5024071;28;9527;-60
2021/01/30 07:32:36;;;;;;;;;2.25;1.00;19.40;69.40;;;18.03;55.54;101835.03;5025571;28;8859;-61
2021/01/30 07:35:23;;;;;;;;;0.50;0.50;19.40;69.30;;;18.00;55.68;101844.16;5030229;28;8877;-60
2021/01/30 07:38:31;;;;;;;;;0.75;0.75;19.50;69.30;;;17.98;55.60;101841.59;5027863;28;8798;-61
2021/01/30 07:41:18;;;;;;;;;0.00;0.00;19.40;69.30;;;17.97;55.41;101841.75;5012177;28;8806;-60
2021/01/30 07:44:02;;;;;;;;;1.25;1.00;19.40;69.20;;;17.95;55.51;101838.31;5011898;28;8897;-60
2021/01/30 07:46:38;;;;;;;;;1.00;1.00;19.30;69.10;;;17.94;55.51;101858.03;5007503;28;8810;-60
2021/01/30 07:49:21;;;;;;;;;0.00;0.00;19.30;69.10;;;17.93;55.42;101861.66;5015908;28;9480;-60
2021/01/30 07:52:09;;;;;;;;;1.00;1.00;19.30;69.20;;;17.91;55.71;101852.91;5030120;28;8810;-60
2021/01/30 07:54:51;;;;;;;;;0.50;0.50;19.30;69.10;;;17.90;55.46;101849.38;5015758;28;8812;-60
2021/01/30 07:57:45;;;;;;;;;0.75;0.50;19.20;69.00;;;17.87;55.49;101860.34;5002021;28;8788;-61
2021/01/30 08:00:48;;;;;;;;;0.00;0.00;19.30;69.00;;;17.85;55.60;101864.94;5002134;28;8801;-61
2021/01/30 08:03:20;;;;;;;;;1.50;0.75;19.20;68.90;;;17.86;55.49;101865.78;5024352;28;9529;-61
2021/01/30 08:06:30;;;;;;;;;0.50;0.50;19.20;68.90;;;17.83;55.39;101874.06;5027157;28;8872;-61
2021/01/30 08:09:41;;;;;;;;;0.00;0.00;19.20;68.80;;;17.81;55.44;101874.19;5009902;28;8838;-60
2021/01/30 08:12:42;;;;;;;;;0.00;0.00;19.20;68.90;;;17.80;55.35;101880.50;5015595;28;8844;-61
2021/01/30 08:16:05;;;;;;;;;0.00;0.00;19.20;68.90;;;17.79;55.48;101892.13;5024422;28;8883;-60
2021/01/30 08:18:44;;;;;;;;;0.25;0.25;19.20;68.90;;;17.78;55.47;101910.00;4967866;28;8851;-60
2021/01/30 08:21:53;;;;;;;;;1.25;0.75;19.10;68.90;;;17.76;55.22;101900.41;5024294;28;8815;-60
2021/01/30 08:24:28;;;;;;;;;1.00;1.00;19.10;68.90;;;17.75;55.15;101901.34;5023653;28;8790;-60
2021/01/30 08:27:03;;;;;;;;;0.00;0.00;19.20;68.90;;;17.76;55.40;101903.06;5031993;28;8774;-60
2021/01/30 08:29:48;;;;;;;;;1.00;1.00;19.10;68.90;;;17.74;55.43;101900.50;5016419;28;8795;-60
2021/01/30 08:32:27;;;;;;;;;0.75;0.00;19.10;68.90;;;17.73;55.43;101900.63;5009691;28;8849;-61
2021/01/30 08:35:16;;;;;;;;;0.50;0.00;19.10;68.90;;;17.71;55.40;101899.91;5025418;28;8901;-60
2021/01/30 08:37:43;;;;;;;;;0.00;0.00;19.00;68.80;;;17.70;55.41;101900.88;5009918;28;8821;-60
2021/01/30 08:40:16;;;;;;;;;2.00;0.00;19.20;68.90;;;17.70;55.63;101908.88;5023714;28;8899;-60
2021/01/30 08:43:36;;;;;;;;;0.25;0.25;18.90;68.70;;;17.68;55.34;101900.13;5018860;28;8791;-61
2021/01/30 08:46:31;;;;;;;;;2.75;0.00;18.90;68.80;;;17.67;55.42;101887.75;5007435;28;8958;-60
2021/01/30 08:49:23;;;;;;;;;0.50;0.50;19.00;68.90;;;17.68;55.11;101892.13;5024023;28;8785;-60
2021/01/30 08:52:12;;;;;;;;;1.00;1.00;19.20;69.00;;;17.66;55.35;101900.28;5029733;28;8814;-60
2021/01/30 08:54:45;;;;;;;;;0.00;0.00;19.20;68.90;;;17.63;55.42;101897.84;5022430;28;8808;-60
2021/01/30 08:57:43;;;;;;;;;0.00;0.00;19.00;68.90;;;17.62;55.39;101895.28;5027769;28;8790;-60
2021/01/30 09:00:28;;;;;;;;;0.00;0.00;19.20;68.90;;;17.60;55.60;101902.56;5013834;28;9554;-60
2021/01/30 09:03:01;;;;;;;;;0.00;0.00;19.00;68.80;;;17.59;55.56;101907.06;5018732;28;8936;-60
2021/01/30 09:05:34;;;;;;;;;0.00;0.00;19.00;68.70;;;17.56;55.34;101902.81;5016676;28;8786;-60
2021/01/30 09:08:16;;;;;;;;;1.00;0.00;19.10;68.70;;;17.54;55.45;101902.06;5020383;28;8806;-60
2021/01/30 09:10:43;;;;;;;;;0.00;0.00;19.00;68.70;;;17.53;55.46;101908.41;5023044;28;8826;-60
2021/01/30 09:13:19;;;;;;;;;0.00;0.00;19.20;68.80;;;17.52;55.50;101917.34;5022418;28;8812;-60
2021/01/30 09:15:46;;;;;;;;;0.50;0.00;19.00;68.70;;;17.51;55.53;101915.69;5029141;28;8807;-60
2021/01/30 09:18:47;;;;;;;;;0.50;0.50;19.00;68.70;;;17.51;55.73;101912.16;5032809;28;9714;-60
2021/01/30 09:21:31;;;;;;;;;0.00;0.00;19.00;68.70;;;17.50;55.64;101919.31;5034475;28;8774;-60
2021/01/30 09:24:48;;;;;;;;;0.75;0.75;19.20;68.90;;;17.49;55.39;101909.59;5027456;28;8782;-60
2021/01/30 09:27:32;;;;;;;;;0.50;0.50;18.90;68.80;;;17.49;55.25;101906.91;4993009;28;8905;-60
2021/01/30 09:30:50;;;;;;;;;0.00;0.00;18.70;68.70;;;17.49;55.59;101906.91;5032845;28;8866;-60
2021/01/30 09:33:28;;;;;;;;;0.00;0.00;18.90;68.70;;;17.45;55.75;101896.59;5024831;28;8830;-60
2021/01/30 09:36:22;;;;;;;;;0.00;0.00;18.90;68.70;;;17.44;55.65;101898.41;5019728;28;8851;-60
2021/01/30 09:38:58;;;;;;;;;0.25;0.25;18.90;68.60;;;17.43;55.66;101895.84;5020472;28;8880;-60
2021/01/30 09:41:27;;;;;;;;;0.75;0.00;18.90;68.50;;;17.41;55.60;101909.34;5035616;28;8780;-60
2021/01/30 09:44:22;;;;;;;;;0.00;0.00;18.90;68.50;;;17.41;55.82;101905.81;5028911;28;8864;-60
2021/01/30 09:46:54;;;;;;;;;0.00;0.00;18.80;68.50;;;17.39;55.77;101911.28;5022554;28;8784;-60
2021/01/30 09:49:35;;;;;;;;;0.00;0.00;18.70;68.50;;;17.37;55.62;101915.88;5027541;28;8778;-60
2021/01/30 09:52:05;;;;;;;;;0.00;0.00;18.80;68.30;;;17.36;55.87;101932.88;5023086;28;8820;-60
2021/01/30 09:54:33;;;;;;;;;0.00;0.00;19.20;68.60;;;17.36;55.80;101935.56;5011162;28;8905;-60
2021/01/30 09:57:20;;;;;;;;;0.00;0.00;18.70;69.00;;;17.34;55.71;101935.66;5029607;28;8788;-60
2021/01/30 09:59:54;;;;;;;;;0.00;0.00;18.90;68.40;;;17.35;55.65;101941.84;5030149;28;9476;-60
2021/01/30 10:02:24;;;;;;;;;0.00;0.00;18.80;68.30;;;17.32;55.52;101948.28;5020852;28;8786;-59
2021/01/30 10:05:20;;;;;;;;;0.00;0.00;18.90;68.50;;;17.33;55.69;101954.50;5012675;28;9507;-60
2021/01/30 10:07:47;;;;;;;;;0.00;0.00;19.00;68.50;;;17.31;55.59;101945.75;5022966;28;8784;-60
2021/01/30 10:10:33;;;;;;;;;0.75;0.75;18.90;68.50;;;17.30;55.77;101949.34;5021917;28;8783;-60
2021/01/30 10:13:01;;;;;;;;;0.25;0.25;18.60;68.50;;;17.30;55.66;101950.22;5032852;28;8814;-60
2021/01/30 10:15:36;;;;;;;;;0.00;0.00;18.60;68.60;;;17.31;55.90;101943.06;5019054;28;8778;-60
2021/01/30 10:18:10;;;;;;;;;0.00;0.00;18.70;68.90;;;17.31;55.38;101946.56;5020700;28;8822;-59
2021/01/30 10:20:59;;;;;;;;;0.00;0.00;18.60;68.90;;;17.31;55.75;101954.59;5013276;28;8856;-59
2021/01/30 10:23:45;;;;;;;;;0.00;0.00;18.70;69.60;;;17.29;55.71;101945.00;5035803;28;8826;-59
2021/01/30 10:26:21;;;;;;;;;0.00;0.00;18.70;69.00;;;17.30;55.70;101958.25;5028034;28;8885;-60
2021/01/30 10:28:58;;;;;;;;;0.00;0.00;18.60;68.90;;;17.29;55.59;101963.69;5014811;28;8910;-60
2021/01/30 10:31:36;;;;;;;;;0.00;0.00;18.60;69.00;;;17.27;55.69;101969.13;5032422;28;8805;-60
2021/01/30 10:34:31;;;;;;;;;0.00;0.00;18.60;68.90;;;17.28;55.55;101975.34;5037148;28;8783;-60
2021/01/30 10:37:36;;;;;;;;;0.00;0.00;18.70;69.00;;;17.25;55.61;101964.88;5019276;28;8798;-60
2021/01/30 10:40:40;;;;;;;;;0.50;0.00;18.50;68.90;;;17.24;55.71;101971.19;5017966;28;8933;-60
2021/01/30 10:43:24;;;;;;;;;0.00;0.00;18.60;69.10;;;17.22;55.74;101967.78;5025745;28;8851;-59
2021/01/30 10:46:40;;;;;;;;;0.00;0.00;18.60;69.10;;;17.21;55.73;101968.75;5014529;28;8770;-60
2021/01/30 10:49:25;;;;;;;;;0.00;0.00;18.60;69.10;;;17.22;55.78;101959.78;4993791;28;8816;-60
2021/01/30 10:52:21;;;;;;;;;0.00;0.00;18.50;69.20;;;17.18;56.04;101961.00;5017519;28;10891;-60
2021/01/30 10:54:48;;;;;;;;;0.00;0.00;18.50;69.40;;;17.19;56.02;101968.03;5006147;28;8842;-60
2021/01/30 10:57:18;;;;;;;;;0.00;0.00;18.70;69.70;;;17.19;55.98;101952.84;5033210;28;8787;-60
2021/01/30 10:59:58;;;;;;;;;0.00;0.00;18.50;69.40;;;17.18;55.91;101961.84;5032570;28;9549;-60
2021/01/30 11:02:28;;;;;;;;;0.00;0.00;18.50;69.40;;;17.18;55.93;101953.81;5020523;28;8804;-60
2021/01/30 11:05:20;;;;;;;;;0.00;0.00;18.50;69.40;;;17.16;56.21;101946.91;5032345;28;8990;-60
2021/01/30 11:08:01;;;;;;;;;0.00;0.00;18.50;69.50;;;17.17;56.00;101945.91;5038865;28;8788;-60
2021/01/30 11:10:43;;;;;;;;;0.00;0.00;18.30;70.10;;;17.16;56.07;101958.44;5021091;28;8797;-60
2021/01/30 11:13:19;;;;;;;;;0.00;0.00;18.50;69.50;;;17.16;56.24;101961.09;5009127;28;8931;-60
2021/01/30 11:15:49;;;;;;;;;0.00;0.00;18.50;69.80;;;17.13;56.28;101959.50;5029556;28;8832;-60
2021/01/30 11:18:28;;;;;;;;;0.00;0.00;18.50;69.80;;;17.13;56.27;101962.19;5030248;28;8806;-60